createdAt,value
2022-09-06T00:00:19.711Z,56.47
2022-09-06T00:00:40.767Z,56.39
2022-09-06T00:01:01.824Z,56.32
2022-09-06T00:01:22.898Z,56.25
2022-09-06T00:01:43.944Z,56.22
2022-09-06T00:02:04.997Z,56.26
2022-09-06T00:02:26.087Z,56.29
2022-09-06T00:02:47.178Z,56.28
2022-09-06T00:03:08.335Z,56.35
2022-09-06T00:03:29.458Z,56.28
2022-09-06T00:03:50.591Z,56.14
2022-09-06T00:04:15.256Z,56.03
2022-09-06T00:04:36.669Z,56.01
2022-09-06T00:04:57.689Z,55.92
2022-09-06T00:05:18.753Z,56.05
2022-09-06T00:05:39.838Z,56.21
2022-09-06T00:06:00.890Z,56.30
2022-09-06T00:06:21.944Z,56.30
2022-09-06T00:06:43.000Z,56.25
2022-09-06T00:07:04.056Z,56.26
2022-09-06T00:07:25.113Z,56.31
2022-09-06T00:07:46.169Z,56.35
2022-09-06T00:08:07.220Z,56.33
2022-09-06T00:08:28.269Z,56.30
2022-09-06T00:08:49.323Z,56.41
2022-09-06T00:09:10.382Z,56.30
2022-09-06T00:09:31.433Z,56.30
2022-09-06T00:09:52.484Z,56.21
2022-09-06T00:10:13.534Z,56.14
2022-09-06T00:10:34.597Z,56.11
2022-09-06T00:11:00.401Z,56.12
2022-09-06T00:11:22.625Z,56.02
2022-09-06T00:11:43.672Z,55.90
2022-09-06T00:12:04.719Z,55.80
2022-09-06T00:12:25.773Z,55.78
2022-09-06T00:12:46.823Z,55.80
2022-09-06T00:13:07.878Z,55.80
2022-09-06T00:13:28.934Z,55.83
2022-09-06T00:13:50.006Z,55.81
2022-09-06T00:14:11.032Z,55.85
2022-09-06T00:14:32.079Z,55.90
2022-09-06T00:14:53.127Z,55.98
2022-09-06T00:15:14.189Z,56.04
2022-09-06T00:15:35.315Z,56.19
2022-09-06T00:15:56.432Z,56.24
2022-09-06T00:16:17.536Z,56.35
2022-09-06T00:16:38.585Z,56.23
2022-09-06T00:16:59.638Z,56.20
2022-09-06T00:17:20.696Z,56.20
2022-09-06T00:17:41.751Z,56.28
2022-09-06T00:18:02.797Z,56.36
2022-09-06T00:18:23.903Z,56.42
2022-09-06T00:18:44.909Z,56.39
2022-09-06T00:19:05.963Z,56.33
2022-09-06T00:19:27.011Z,56.27
2022-09-06T00:19:48.060Z,56.29
2022-09-06T00:20:09.113Z,56.39
2022-09-06T00:20:30.170Z,56.46
2022-09-06T00:20:51.226Z,56.58
2022-09-06T00:21:12.397Z,56.67
2022-09-06T00:21:33.450Z,56.72
2022-09-06T00:21:54.503Z,56.71
2022-09-06T00:22:15.566Z,56.70
2022-09-06T00:22:36.614Z,56.61
2022-09-06T00:22:57.668Z,56.63
2022-09-06T00:23:18.715Z,56.65
2022-09-06T00:23:39.767Z,56.72
2022-09-06T00:24:00.829Z,56.66
2022-09-06T00:24:21.880Z,56.59
2022-09-06T00:24:42.934Z,56.65
2022-09-06T00:25:03.983Z,56.74
2022-09-06T00:25:25.038Z,56.74
2022-09-06T00:25:46.083Z,56.63
2022-09-06T00:26:07.135Z,56.61
2022-09-06T00:26:28.204Z,56.68
2022-09-06T00:26:49.251Z,56.71
2022-09-06T00:27:10.298Z,56.64
2022-09-06T00:27:31.353Z,56.57
2022-09-06T00:27:52.397Z,56.52
2022-09-06T00:28:13.443Z,56.47
2022-09-06T00:28:34.498Z,56.68
2022-09-06T00:28:55.558Z,56.86
2022-09-06T00:29:16.608Z,56.93
2022-09-06T00:29:37.661Z,56.92
2022-09-06T00:29:58.710Z,56.98
2022-09-06T00:30:19.763Z,56.97
2022-09-06T00:30:40.842Z,56.93
2022-09-06T00:31:01.971Z,56.95
2022-09-06T00:31:23.071Z,57.00
2022-09-06T00:31:44.115Z,57.04
2022-09-06T00:32:05.168Z,57.05
2022-09-06T00:32:26.211Z,57.07
2022-09-06T00:32:47.265Z,57.09
2022-09-06T00:33:08.315Z,57.13
2022-09-06T00:33:29.365Z,57.20
2022-09-06T00:33:50.413Z,57.24
2022-09-06T00:34:11.475Z,57.18
2022-09-06T00:34:32.520Z,57.19
2022-09-06T00:34:53.575Z,57.23
2022-09-06T00:35:14.625Z,57.25
2022-09-06T00:35:35.704Z,57.26
2022-09-06T00:35:56.757Z,57.26
2022-09-06T00:36:17.813Z,57.29
2022-09-06T00:36:38.871Z,57.30
2022-09-06T00:36:59.919Z,57.24
2022-09-06T00:37:20.969Z,57.28
2022-09-06T00:37:42.024Z,57.25
2022-09-06T00:38:03.078Z,57.25
2022-09-06T00:38:24.126Z,57.21
2022-09-06T00:38:45.173Z,57.15
2022-09-06T00:39:06.228Z,57.17
2022-09-06T00:39:27.326Z,57.15
2022-09-06T00:39:48.388Z,57.10
2022-09-06T00:40:09.511Z,57.02
2022-09-06T00:40:30.569Z,57.04
2022-09-06T00:40:51.638Z,57.08
2022-09-06T00:41:12.694Z,57.17
2022-09-06T00:41:33.742Z,57.23
2022-09-06T00:41:54.795Z,57.31
2022-09-06T00:42:15.852Z,57.38
2022-09-06T00:42:36.900Z,57.44
2022-09-06T00:42:57.952Z,57.39
2022-09-06T00:43:19.009Z,57.21
2022-09-06T00:43:40.071Z,57.12
2022-09-06T00:44:01.117Z,57.14
2022-09-06T00:44:22.175Z,57.22
2022-09-06T00:44:43.220Z,57.31
2022-09-06T00:45:04.282Z,57.24
2022-09-06T00:45:25.334Z,57.29
2022-09-06T00:45:46.377Z,57.22
2022-09-06T00:46:07.606Z,57.16
2022-09-06T00:46:28.745Z,57.13
2022-09-06T00:46:49.756Z,57.02
2022-09-06T00:47:10.812Z,56.87
2022-09-06T00:47:31.856Z,56.77
2022-09-06T00:47:52.913Z,56.74
2022-09-06T00:48:13.964Z,56.71
2022-09-06T00:48:35.012Z,56.80
2022-09-06T00:48:56.059Z,56.90
2022-09-06T00:49:17.114Z,56.98
2022-09-06T00:49:38.167Z,56.95
2022-09-06T00:49:59.215Z,56.91
2022-09-06T00:50:20.275Z,56.94
2022-09-06T00:50:41.334Z,56.87
2022-09-06T00:51:02.389Z,56.84
2022-09-06T00:51:23.570Z,56.81
2022-09-06T00:51:44.623Z,56.77
2022-09-06T00:52:05.680Z,56.74
2022-09-06T00:52:26.730Z,56.72
2022-09-06T00:52:47.790Z,56.75
2022-09-06T00:53:08.840Z,56.87
2022-09-06T00:53:29.886Z,56.97
2022-09-06T00:53:50.937Z,57.06
2022-09-06T00:54:11.982Z,57.05
2022-09-06T00:54:33.037Z,57.09
2022-09-06T00:54:54.090Z,57.13
2022-09-06T00:55:15.141Z,57.17
2022-09-06T00:55:36.185Z,57.16
2022-09-06T00:55:57.236Z,57.22
2022-09-06T00:56:18.284Z,57.30
2022-09-06T00:56:39.354Z,57.18
2022-09-06T00:57:00.407Z,57.08
2022-09-06T00:57:21.463Z,56.94
2022-09-06T00:57:42.530Z,56.86
2022-09-06T00:58:03.565Z,56.79
2022-09-06T00:58:24.668Z,56.68
2022-09-06T00:58:45.715Z,56.65
2022-09-06T00:59:06.778Z,56.57
2022-09-06T00:59:27.827Z,56.57
2022-09-06T00:59:48.876Z,56.58
2022-09-06T01:00:09.924Z,56.64
2022-09-06T01:00:30.979Z,56.68
2022-09-06T01:00:52.045Z,56.68
2022-09-06T01:01:13.215Z,56.66
2022-09-06T01:01:34.399Z,56.60
2022-09-06T01:01:55.743Z,56.57
2022-09-06T01:02:16.928Z,56.55
2022-09-06T01:02:38.241Z,56.61
2022-09-06T01:02:59.335Z,56.57
2022-09-06T01:03:20.383Z,56.54
2022-09-06T01:03:41.438Z,56.59
2022-09-06T01:04:02.493Z,56.61
2022-09-06T01:04:23.539Z,56.55
2022-09-06T01:04:44.597Z,56.53
2022-09-06T01:05:05.654Z,56.49
2022-09-06T01:05:26.696Z,56.44
2022-09-06T01:05:49.705Z,56.41
2022-09-06T01:06:13.723Z,56.43
2022-09-06T01:06:34.778Z,56.43
2022-09-06T01:06:55.943Z,56.44
2022-09-06T01:07:17.119Z,56.42
2022-09-06T01:07:38.171Z,56.39
2022-09-06T01:07:59.220Z,56.39
2022-09-06T01:08:20.272Z,56.35
2022-09-06T01:08:41.318Z,56.28
2022-09-06T01:09:02.378Z,56.26
2022-09-06T01:09:23.435Z,56.23
2022-09-06T01:09:44.479Z,56.24
2022-09-06T01:10:05.533Z,56.28
2022-09-06T01:10:26.579Z,56.26
2022-09-06T01:10:47.633Z,56.22
2022-09-06T01:11:08.687Z,56.18
2022-09-06T01:11:29.738Z,56.15
2022-09-06T01:11:50.789Z,56.14
2022-09-06T01:12:11.836Z,56.04
2022-09-06T01:12:33.024Z,56.01
2022-09-06T01:12:54.076Z,55.96
2022-09-06T01:13:15.136Z,55.88
2022-09-06T01:13:36.196Z,55.83
2022-09-06T01:13:57.243Z,55.87
2022-09-06T01:14:18.311Z,55.84
2022-09-06T01:14:39.369Z,55.85
2022-09-06T01:15:00.428Z,55.87
2022-09-06T01:15:21.484Z,55.88
2022-09-06T01:15:42.609Z,55.91
2022-09-06T01:16:03.722Z,55.96
2022-09-06T01:16:24.756Z,55.94
2022-09-06T01:16:45.813Z,55.98
2022-09-06T01:17:06.863Z,55.96
2022-09-06T01:17:27.921Z,55.96
2022-09-06T01:17:48.985Z,55.93
2022-09-06T01:18:10.036Z,55.88
2022-09-06T01:18:31.084Z,55.92
2022-09-06T01:18:52.135Z,55.94
2022-09-06T01:19:13.186Z,55.90
2022-09-06T01:19:34.232Z,55.89
2022-09-06T01:19:55.285Z,55.91
2022-09-06T01:20:16.333Z,55.95
2022-09-06T01:20:37.381Z,55.98
2022-09-06T01:20:58.442Z,55.95
2022-09-06T01:21:19.494Z,55.98
2022-09-06T01:21:40.544Z,55.92
2022-09-06T01:22:01.605Z,56.04
2022-09-06T01:22:22.655Z,56.00
2022-09-06T01:22:43.704Z,55.96
2022-09-06T01:23:04.782Z,55.85
2022-09-06T01:23:25.823Z,55.80
2022-09-06T01:23:46.899Z,55.75
2022-09-06T01:24:07.944Z,55.74
2022-09-06T01:24:28.992Z,55.72
2022-09-06T01:24:50.044Z,55.69
2022-09-06T01:25:11.090Z,55.79
2022-09-06T01:25:32.139Z,55.72
2022-09-06T01:25:53.203Z,55.74
2022-09-06T01:26:14.269Z,55.73
2022-09-06T01:26:35.316Z,55.65
2022-09-06T01:26:56.369Z,55.65
2022-09-06T01:27:17.417Z,55.69
2022-09-06T01:27:38.476Z,55.66
2022-09-06T01:27:59.518Z,55.61
2022-09-06T01:28:20.651Z,55.60
2022-09-06T01:28:41.655Z,55.58
2022-09-06T01:29:02.706Z,55.57
2022-09-06T01:29:23.755Z,55.60
2022-09-06T01:29:44.811Z,55.62
2022-09-06T01:30:05.867Z,55.79
2022-09-06T01:30:26.923Z,55.85
2022-09-06T01:30:48.029Z,55.90
2022-09-06T01:31:09.125Z,55.96
2022-09-06T01:31:30.284Z,55.97
2022-09-06T01:31:51.311Z,56.10
2022-09-06T01:32:12.361Z,56.16
2022-09-06T01:32:33.405Z,56.20
2022-09-06T01:32:54.459Z,56.08
2022-09-06T01:33:15.505Z,56.03
2022-09-06T01:33:36.669Z,56.00
2022-09-06T01:33:57.722Z,55.96
2022-09-06T01:34:18.773Z,55.93
2022-09-06T01:34:39.825Z,55.92
2022-09-06T01:35:00.879Z,55.95
2022-09-06T01:35:21.939Z,55.99
2022-09-06T01:35:42.989Z,55.96
2022-09-06T01:36:04.039Z,55.89
2022-09-06T01:36:25.087Z,55.86
2022-09-06T01:37:08.457Z,55.90
2022-09-06T01:37:13.105Z,56.06
2022-09-06T01:37:34.152Z,56.13
2022-09-06T01:37:55.208Z,56.16
2022-09-06T01:38:16.263Z,56.19
2022-09-06T01:38:37.458Z,56.13
2022-09-06T01:38:58.496Z,56.07
2022-09-06T01:39:19.552Z,56.05
2022-09-06T01:39:40.682Z,55.98
2022-09-06T01:40:01.812Z,55.96
2022-09-06T01:40:22.858Z,55.97
2022-09-06T01:40:43.904Z,56.11
2022-09-06T01:41:04.963Z,56.24
2022-09-06T01:41:26.008Z,56.28
2022-09-06T01:41:47.057Z,56.31
2022-09-06T01:42:08.111Z,56.20
2022-09-06T01:42:29.159Z,56.16
2022-09-06T01:42:50.219Z,56.28
2022-09-06T01:43:11.352Z,56.42
2022-09-06T01:43:32.348Z,56.49
2022-09-06T01:43:53.531Z,56.47
2022-09-06T01:44:14.586Z,56.39
2022-09-06T01:44:35.642Z,56.37
2022-09-06T01:44:56.692Z,56.30
2022-09-06T01:45:17.750Z,56.31
2022-09-06T01:45:38.803Z,56.38
2022-09-06T01:45:59.877Z,56.44
2022-09-06T01:46:21.066Z,56.45
2022-09-06T01:46:42.106Z,56.44
2022-09-06T01:47:03.168Z,56.46
2022-09-06T01:47:24.216Z,56.49
2022-09-06T01:47:45.274Z,56.55
2022-09-06T01:48:06.341Z,56.61
2022-09-06T01:48:27.472Z,56.61
2022-09-06T01:48:48.516Z,56.51
2022-09-06T01:49:09.682Z,56.42
2022-09-06T01:49:30.738Z,56.51
2022-09-06T01:49:51.787Z,56.52
2022-09-06T01:50:12.848Z,56.47
2022-09-06T01:50:33.890Z,56.44
2022-09-06T01:50:54.941Z,56.41
2022-09-06T01:51:16.008Z,56.37
2022-09-06T01:51:37.053Z,56.36
2022-09-06T01:51:58.102Z,56.32
2022-09-06T01:52:19.153Z,56.33
2022-09-06T01:52:40.208Z,56.40
2022-09-06T01:53:01.257Z,56.43
2022-09-06T01:53:22.312Z,56.57
2022-09-06T01:53:43.368Z,56.59
2022-09-06T01:54:04.416Z,56.58
2022-09-06T01:54:25.486Z,56.62
2022-09-06T01:54:46.538Z,56.55
2022-09-06T01:55:07.588Z,56.42
2022-09-06T01:55:28.643Z,56.36
2022-09-06T01:55:49.729Z,56.32
2022-09-06T01:56:10.780Z,56.28
2022-09-06T01:56:31.831Z,56.35
2022-09-06T01:56:52.884Z,56.36
2022-09-06T01:57:13.935Z,56.32
2022-09-06T01:57:34.984Z,56.32
2022-09-06T01:57:56.039Z,56.22
2022-09-06T01:58:17.094Z,56.23
2022-09-06T01:58:38.138Z,56.22
2022-09-06T01:58:59.196Z,56.24
2022-09-06T01:59:20.240Z,56.28
2022-09-06T01:59:41.308Z,56.39
2022-09-06T02:00:02.366Z,56.45
2022-09-06T02:00:23.420Z,56.53
2022-09-06T02:00:44.479Z,56.69
2022-09-06T02:01:05.583Z,56.62
2022-09-06T02:01:26.636Z,56.60
2022-09-06T02:01:47.784Z,56.63
2022-09-06T02:02:08.856Z,56.68
2022-09-06T02:02:29.918Z,56.67
2022-09-06T02:02:51.002Z,56.63
2022-09-06T02:03:12.009Z,56.73
2022-09-06T02:03:33.056Z,56.89
2022-09-06T02:03:54.106Z,56.99
2022-09-06T02:04:15.157Z,56.97
2022-09-06T02:04:36.329Z,56.88
2022-09-06T02:04:57.382Z,56.87
2022-09-06T02:05:18.444Z,56.84
2022-09-06T02:05:39.496Z,56.85
2022-09-06T02:06:00.544Z,56.79
2022-09-06T02:06:21.594Z,56.75
2022-09-06T02:06:42.640Z,56.76
2022-09-06T02:07:03.690Z,56.80
2022-09-06T02:07:24.740Z,56.87
2022-09-06T02:07:45.806Z,56.93
2022-09-06T02:08:06.856Z,57.04
2022-09-06T02:08:28.017Z,57.05
2022-09-06T02:08:49.125Z,57.09
2022-09-06T02:09:10.172Z,57.14
2022-09-06T02:09:31.220Z,57.27
2022-09-06T02:09:52.391Z,57.39
2022-09-06T02:10:13.440Z,57.45
2022-09-06T02:10:34.492Z,57.38
2022-09-06T02:10:55.540Z,57.41
2022-09-06T02:11:16.616Z,57.34
2022-09-06T02:11:37.668Z,57.30
2022-09-06T02:11:58.733Z,57.16
2022-09-06T02:12:19.782Z,57.16
2022-09-06T02:12:40.847Z,57.00
2022-09-06T02:13:01.886Z,56.96
2022-09-06T02:13:22.935Z,57.00
2022-09-06T02:13:43.984Z,56.99
2022-09-06T02:14:05.031Z,56.93
2022-09-06T02:14:26.084Z,56.79
2022-09-06T02:14:47.154Z,56.68
2022-09-06T02:15:08.199Z,56.63
2022-09-06T02:15:29.269Z,56.60
2022-09-06T02:15:50.318Z,56.55
2022-09-06T02:16:11.373Z,56.55
2022-09-06T02:16:32.488Z,56.42
2022-09-06T02:16:53.578Z,56.42
2022-09-06T02:17:14.601Z,56.47
2022-09-06T02:17:35.652Z,56.57
2022-09-06T02:17:56.713Z,56.68
2022-09-06T02:18:17.755Z,56.67
2022-09-06T02:18:38.807Z,56.59
2022-09-06T02:18:59.867Z,56.56
2022-09-06T02:19:20.915Z,56.49
2022-09-06T02:19:41.963Z,56.41
2022-09-06T02:20:03.042Z,56.36
2022-09-06T02:20:24.120Z,56.36
2022-09-06T02:20:45.158Z,56.41
2022-09-06T02:21:06.205Z,56.54
2022-09-06T02:21:27.261Z,56.65
2022-09-06T02:21:48.305Z,56.83
2022-09-06T02:22:09.360Z,56.97
2022-09-06T02:22:30.410Z,57.23
2022-09-06T02:22:51.462Z,57.37
2022-09-06T02:23:12.512Z,57.41
2022-09-06T02:23:33.566Z,57.43
2022-09-06T02:23:54.616Z,57.43
2022-09-06T02:24:15.667Z,57.49
2022-09-06T02:24:36.716Z,57.45
2022-09-06T02:24:57.887Z,57.31
2022-09-06T02:25:18.941Z,57.27
2022-09-06T02:25:39.987Z,57.22
2022-09-06T02:26:01.043Z,57.13
2022-09-06T02:26:22.091Z,57.02
2022-09-06T02:26:43.145Z,56.91
2022-09-06T02:27:04.209Z,56.85
2022-09-06T02:27:25.257Z,56.77
2022-09-06T02:27:46.303Z,56.63
2022-09-06T02:28:07.355Z,56.51
2022-09-06T02:28:28.583Z,56.44
2022-09-06T02:28:49.719Z,56.39
2022-09-06T02:29:10.769Z,56.39
2022-09-06T02:29:31.815Z,56.36
2022-09-06T02:29:52.865Z,56.32
2022-09-06T02:30:13.927Z,56.26
2022-09-06T02:30:35.012Z,56.26
2022-09-06T02:30:56.151Z,56.16
2022-09-06T02:31:17.223Z,56.11
2022-09-06T02:31:38.275Z,56.11
2022-09-06T02:31:59.330Z,56.10
2022-09-06T02:32:20.490Z,56.10
2022-09-06T02:32:41.546Z,56.11
2022-09-06T02:33:02.597Z,56.14
2022-09-06T02:33:23.647Z,56.13
2022-09-06T02:33:44.699Z,56.13
2022-09-06T02:34:05.750Z,56.10
2022-09-06T02:34:26.805Z,56.10
2022-09-06T02:34:47.850Z,56.09
2022-09-06T02:35:08.912Z,56.08
2022-09-06T02:35:29.967Z,56.01
2022-09-06T02:35:51.012Z,55.97
2022-09-06T02:36:12.059Z,55.88
2022-09-06T02:36:33.112Z,55.79
2022-09-06T02:36:54.160Z,55.73
2022-09-06T02:37:15.204Z,55.66
2022-09-06T02:37:36.389Z,55.60
2022-09-06T02:37:57.437Z,55.56
2022-09-06T02:38:18.482Z,55.48
2022-09-06T02:38:39.531Z,55.48
2022-09-06T02:39:00.580Z,55.45
2022-09-06T02:39:21.630Z,55.46
2022-09-06T02:39:42.745Z,55.44
2022-09-06T02:40:03.828Z,55.38
2022-09-06T02:40:24.854Z,55.29
2022-09-06T02:40:45.906Z,55.30
2022-09-06T02:41:06.959Z,55.23
2022-09-06T02:41:28.009Z,55.26
2022-09-06T02:41:49.066Z,55.24
2022-09-06T02:42:10.114Z,55.23
2022-09-06T02:42:31.163Z,55.21
2022-09-06T02:42:52.227Z,55.19
2022-09-06T02:43:13.281Z,55.15
2022-09-06T02:43:34.329Z,55.12
2022-09-06T02:43:55.380Z,55.11
2022-09-06T02:44:16.441Z,55.12
2022-09-06T02:44:37.496Z,55.15
2022-09-06T02:44:58.560Z,55.24
2022-09-06T02:45:19.611Z,55.27
2022-09-06T02:45:40.671Z,55.30
2022-09-06T02:46:01.828Z,55.37
2022-09-06T02:46:22.935Z,55.37
2022-09-06T02:46:43.981Z,55.37
2022-09-06T02:47:05.027Z,55.31
2022-09-06T02:47:26.077Z,55.26
2022-09-06T02:47:47.127Z,55.25
2022-09-06T02:48:08.186Z,55.29
2022-09-06T02:48:29.237Z,55.34
2022-09-06T02:48:50.308Z,55.39
2022-09-06T02:49:11.338Z,55.38
2022-09-06T02:49:32.390Z,55.39
2022-09-06T02:49:53.438Z,55.37
2022-09-06T02:50:14.489Z,55.36
2022-09-06T02:50:35.540Z,55.34
2022-09-06T02:50:56.591Z,55.28
2022-09-06T02:51:17.644Z,55.27
2022-09-06T02:51:38.691Z,55.21
2022-09-06T02:51:59.741Z,55.15
2022-09-06T02:52:20.813Z,55.08
2022-09-06T02:52:41.863Z,54.96
2022-09-06T02:53:02.919Z,54.93
2022-09-06T02:53:23.974Z,54.91
2022-09-06T02:53:45.022Z,54.95
2022-09-06T02:54:06.081Z,54.96
2022-09-06T02:54:27.128Z,54.95
2022-09-06T02:54:48.188Z,54.98
2022-09-06T02:55:09.247Z,55.09
2022-09-06T02:55:30.358Z,55.20
2022-09-06T02:55:51.363Z,55.24
2022-09-06T02:56:12.422Z,55.32
2022-09-06T02:56:33.476Z,55.29
2022-09-06T02:56:54.533Z,55.38
2022-09-06T02:57:15.585Z,55.40
2022-09-06T02:57:57.749Z,55.43
2022-09-06T02:58:18.810Z,55.50
2022-09-06T02:58:39.853Z,55.43
2022-09-06T02:59:00.901Z,55.42
2022-09-06T02:59:21.953Z,55.37
2022-09-06T02:59:43.006Z,55.31
2022-09-06T03:00:04.059Z,55.32
2022-09-06T03:00:25.121Z,55.32
2022-09-06T03:00:46.175Z,55.38
2022-09-06T03:01:07.284Z,55.48
2022-09-06T03:01:28.427Z,55.39
2022-09-06T03:01:49.446Z,55.32
2022-09-06T03:02:10.578Z,55.39
2022-09-06T03:02:31.703Z,55.40
2022-09-06T03:02:52.729Z,55.33
2022-09-06T03:03:13.790Z,55.29
2022-09-06T03:03:34.836Z,55.25
2022-09-06T03:03:55.891Z,55.29
2022-09-06T03:04:16.939Z,55.25
2022-09-06T03:04:37.998Z,55.25
2022-09-06T03:04:59.059Z,55.23
2022-09-06T03:05:20.107Z,55.24
2022-09-06T03:05:41.168Z,55.18
2022-09-06T03:06:02.217Z,55.18
2022-09-06T03:06:23.269Z,55.22
2022-09-06T03:06:44.331Z,55.21
2022-09-06T03:07:05.374Z,55.18
2022-09-06T03:07:26.429Z,55.16
2022-09-06T03:07:47.493Z,55.12
2022-09-06T03:08:08.550Z,55.09
2022-09-06T03:08:29.599Z,55.08
2022-09-06T03:08:50.652Z,55.09
2022-09-06T03:09:11.705Z,55.07
2022-09-06T03:09:32.755Z,55.00
2022-09-06T03:09:53.805Z,54.93
2022-09-06T03:10:14.864Z,54.89
2022-09-06T03:10:35.919Z,54.87
2022-09-06T03:10:56.972Z,54.90
2022-09-06T03:11:18.024Z,54.91
2022-09-06T03:11:39.085Z,54.89
2022-09-06T03:12:00.140Z,54.93
2022-09-06T03:12:21.188Z,54.96
2022-09-06T03:12:42.240Z,54.96
2022-09-06T03:13:03.411Z,54.92
2022-09-06T03:13:24.459Z,54.90
2022-09-06T03:13:45.515Z,54.83
2022-09-06T03:14:06.566Z,54.77
2022-09-06T03:14:27.612Z,54.74
2022-09-06T03:14:51.923Z,54.70
2022-09-06T03:15:15.636Z,54.68
2022-09-06T03:15:36.691Z,54.57
2022-09-06T03:15:57.741Z,54.54
2022-09-06T03:16:18.832Z,54.55
2022-09-06T03:16:39.914Z,54.56
2022-09-06T03:17:00.993Z,54.54
2022-09-06T03:17:22.005Z,54.51
2022-09-06T03:17:43.057Z,54.49
2022-09-06T03:18:04.138Z,54.47
2022-09-06T03:18:25.209Z,54.45
2022-09-06T03:18:46.252Z,54.50
2022-09-06T03:19:07.299Z,54.53
2022-09-06T03:19:28.376Z,54.53
2022-09-06T03:19:49.443Z,54.55
2022-09-06T03:20:10.497Z,54.60
2022-09-06T03:20:36.389Z,54.59
2022-09-06T03:20:58.513Z,54.58
2022-09-06T03:21:19.559Z,54.54
2022-09-06T03:21:40.608Z,54.58
2022-09-06T03:22:01.662Z,54.61
2022-09-06T03:22:22.720Z,54.59
2022-09-06T03:22:43.768Z,54.51
2022-09-06T03:23:04.934Z,54.41
2022-09-06T03:23:26.004Z,54.39
2022-09-06T03:23:47.053Z,54.38
2022-09-06T03:24:08.102Z,54.40
2022-09-06T03:24:29.153Z,54.42
2022-09-06T03:24:50.206Z,54.46
2022-09-06T03:25:11.259Z,54.46
2022-09-06T03:25:32.322Z,54.46
2022-09-06T03:25:53.381Z,54.49
2022-09-06T03:26:14.438Z,54.56
2022-09-06T03:26:35.488Z,54.60
2022-09-06T03:26:56.543Z,54.60
2022-09-06T03:27:17.596Z,54.61
2022-09-06T03:27:38.645Z,54.61
2022-09-06T03:27:59.698Z,54.63
2022-09-06T03:28:20.768Z,54.58
2022-09-06T03:28:41.952Z,54.56
2022-09-06T03:29:03.007Z,54.55
2022-09-06T03:29:24.050Z,54.57
2022-09-06T03:29:45.102Z,54.58
2022-09-06T03:30:06.153Z,54.61
2022-09-06T03:30:27.253Z,54.67
2022-09-06T03:30:48.359Z,54.72
2022-09-06T03:31:09.434Z,54.71
2022-09-06T03:31:30.487Z,54.76
2022-09-06T03:31:51.542Z,54.76
2022-09-06T03:32:12.598Z,54.68
2022-09-06T03:32:33.641Z,54.63
2022-09-06T03:32:54.706Z,54.61
2022-09-06T03:33:15.759Z,54.52
2022-09-06T03:33:36.800Z,54.48
2022-09-06T03:33:57.969Z,54.42
2022-09-06T03:34:19.024Z,54.37
2022-09-06T03:34:40.080Z,54.36
2022-09-06T03:35:01.263Z,54.32
2022-09-06T03:35:22.315Z,54.28
2022-09-06T03:35:43.363Z,54.28
2022-09-06T03:36:04.421Z,54.27
2022-09-06T03:36:25.460Z,54.28
2022-09-06T03:36:46.514Z,54.27
2022-09-06T03:37:07.562Z,54.28
2022-09-06T03:37:28.621Z,54.32
2022-09-06T03:37:49.669Z,54.29
2022-09-06T03:38:10.725Z,54.34
2022-09-06T03:38:31.769Z,54.32
2022-09-06T03:38:52.824Z,54.35
2022-09-06T03:39:13.871Z,54.38
2022-09-06T03:39:34.977Z,54.41
2022-09-06T03:39:56.079Z,54.51
2022-09-06T03:40:17.173Z,54.49
2022-09-06T03:40:38.218Z,54.53
2022-09-06T03:40:59.270Z,54.50
2022-09-06T03:41:20.342Z,54.57
2022-09-06T03:41:41.395Z,54.69
2022-09-06T03:42:02.450Z,54.79
2022-09-06T03:42:23.509Z,54.84
2022-09-06T03:42:44.562Z,54.91
2022-09-06T03:43:05.610Z,54.90
2022-09-06T03:43:26.660Z,54.80
2022-09-06T03:43:47.712Z,54.66
2022-09-06T03:44:08.769Z,54.56
2022-09-06T03:44:29.834Z,54.47
2022-09-06T03:44:50.876Z,54.40
2022-09-06T03:45:11.953Z,54.35
2022-09-06T03:45:33.067Z,54.41
2022-09-06T03:45:54.179Z,54.43
2022-09-06T03:46:15.347Z,54.56
2022-09-06T03:46:36.375Z,54.70
2022-09-06T03:46:57.426Z,54.81
2022-09-06T03:47:19.725Z,54.80
2022-09-06T03:47:40.853Z,54.85
2022-09-06T03:48:01.910Z,54.89
2022-09-06T03:48:23.019Z,54.91
2022-09-06T03:48:44.068Z,54.98
2022-09-06T03:49:05.115Z,55.07
2022-09-06T03:49:26.167Z,55.14
2022-09-06T03:49:47.216Z,55.26
2022-09-06T03:50:08.272Z,55.33
2022-09-06T03:50:29.447Z,55.41
2022-09-06T03:50:50.491Z,55.47
2022-09-06T03:51:11.542Z,55.47
2022-09-06T03:51:32.595Z,55.55
2022-09-06T03:51:53.648Z,55.63
2022-09-06T03:52:14.697Z,55.71
2022-09-06T03:52:35.744Z,55.76
2022-09-06T03:52:56.795Z,55.70
2022-09-06T03:53:17.846Z,55.66
2022-09-06T03:53:38.892Z,55.54
2022-09-06T03:53:59.944Z,55.52
2022-09-06T03:54:20.991Z,55.70
2022-09-06T03:54:42.046Z,55.82
2022-09-06T03:55:03.100Z,55.96
2022-09-06T03:55:24.150Z,55.95
2022-09-06T03:55:45.324Z,55.93
2022-09-06T03:56:06.370Z,55.76
2022-09-06T03:56:27.420Z,55.66
2022-09-06T03:56:48.471Z,55.73
2022-09-06T03:57:09.521Z,55.81
2022-09-06T03:57:30.575Z,55.92
2022-09-06T03:57:51.622Z,55.98
2022-09-06T03:58:12.671Z,56.07
2022-09-06T03:58:33.741Z,56.19
2022-09-06T03:58:54.780Z,56.29
2022-09-06T03:59:15.832Z,56.32
2022-09-06T03:59:36.878Z,56.43
2022-09-06T03:59:57.937Z,56.47
2022-09-06T04:00:18.995Z,56.48
2022-09-06T04:00:40.053Z,56.57
2022-09-06T04:01:01.241Z,56.70
2022-09-06T04:01:22.377Z,56.89
2022-09-06T04:01:43.525Z,57.12
2022-09-06T04:02:04.674Z,57.23
2022-09-06T04:02:25.736Z,57.23
2022-09-06T04:02:46.841Z,57.35
2022-09-06T04:03:07.881Z,57.45
2022-09-06T04:03:28.935Z,57.58
2022-09-06T04:03:49.982Z,57.60
2022-09-06T04:04:11.031Z,57.66
2022-09-06T04:04:32.082Z,57.70
2022-09-06T04:04:53.139Z,57.70
2022-09-06T04:05:14.176Z,57.68
2022-09-06T04:05:35.232Z,57.66
2022-09-06T04:05:56.281Z,57.80
2022-09-06T04:06:17.454Z,57.95
2022-09-06T04:06:38.498Z,58.23
2022-09-06T04:06:59.552Z,58.33
2022-09-06T04:07:20.603Z,58.50
2022-09-06T04:07:41.655Z,58.48
2022-09-06T04:08:02.710Z,58.27
2022-09-06T04:08:23.852Z,58.04
2022-09-06T04:08:44.887Z,57.87
2022-09-06T04:09:05.942Z,57.98
2022-09-06T04:09:27.001Z,58.17
2022-09-06T04:09:48.057Z,58.37
2022-09-06T04:10:09.111Z,58.55
2022-09-06T04:10:30.173Z,58.60
2022-09-06T04:10:51.220Z,58.67
2022-09-06T04:11:12.274Z,58.72
2022-09-06T04:11:33.339Z,58.74
2022-09-06T04:11:54.393Z,58.67
2022-09-06T04:12:15.451Z,58.62
2022-09-06T04:12:36.511Z,58.70
2022-09-06T04:12:57.566Z,58.77
2022-09-06T04:13:18.623Z,58.86
2022-09-06T04:13:39.670Z,59.05
2022-09-06T04:14:00.727Z,59.23
2022-09-06T04:14:21.763Z,59.20
2022-09-06T04:14:42.816Z,59.24
2022-09-06T04:15:03.868Z,59.32
2022-09-06T04:15:24.929Z,59.31
2022-09-06T04:15:45.980Z,59.43
2022-09-06T04:16:07.084Z,59.57
2022-09-06T04:16:28.181Z,59.58
2022-09-06T04:16:49.356Z,59.61
2022-09-06T04:17:10.394Z,59.59
2022-09-06T04:17:31.444Z,59.68
2022-09-06T04:17:52.501Z,59.76
2022-09-06T04:18:13.547Z,59.83
2022-09-06T04:18:34.598Z,59.92
2022-09-06T04:18:55.652Z,60.12
2022-09-06T04:19:16.706Z,60.21
2022-09-06T04:19:37.752Z,60.03
2022-09-06T04:19:58.803Z,59.79
2022-09-06T04:20:19.855Z,59.69
2022-09-06T04:20:40.913Z,59.48
2022-09-06T04:21:01.966Z,59.36
2022-09-06T04:21:23.021Z,59.25
2022-09-06T04:21:44.074Z,59.14
2022-09-06T04:22:05.237Z,58.92
2022-09-06T04:22:26.295Z,58.79
2022-09-06T04:22:47.343Z,58.65
2022-09-06T04:23:08.396Z,58.59
2022-09-06T04:23:29.439Z,58.52
2022-09-06T04:23:50.501Z,58.40
2022-09-06T04:24:11.544Z,58.42
2022-09-06T04:24:32.590Z,58.48
2022-09-06T04:24:53.652Z,58.53
2022-09-06T04:25:14.703Z,58.52
2022-09-06T04:25:35.752Z,58.59
2022-09-06T04:25:56.810Z,58.64
2022-09-06T04:26:17.862Z,58.67
2022-09-06T04:26:38.915Z,58.69
2022-09-06T04:26:59.977Z,58.73
2022-09-06T04:27:21.042Z,58.65
2022-09-06T04:27:42.105Z,58.55
2022-09-06T04:28:03.150Z,58.44
2022-09-06T04:28:24.275Z,58.32
2022-09-06T04:28:45.275Z,58.37
2022-09-06T04:29:06.327Z,58.44
2022-09-06T04:29:27.385Z,58.48
2022-09-06T04:29:48.436Z,58.44
2022-09-06T04:30:09.482Z,58.48
2022-09-06T04:30:30.537Z,58.44
2022-09-06T04:30:51.585Z,58.49
2022-09-06T04:31:12.637Z,58.58
2022-09-06T04:31:33.699Z,58.64
2022-09-06T04:31:54.799Z,58.59
2022-09-06T04:32:15.814Z,58.55